Time;durP1;ratioP1;P1;durP2;ratioP2;P2;SDS_P1;SDS_P2;PMS_P1;PMS_P2;Temp;Humidity;BMP_temperature;BMP_pressure;BME280_temperature;BME280_humidity;BME280_pressure;Samples;Min_cycle;Max_cycle;Signal;HPM_P1;HPM_P2
2024/01/31 00:00:07;;;;;;;20.48;11.27;;;;;;;-0.60;67.82;101483.66;4924966;29;20054;-90
2024/01/31 00:02:33;;;;;;;24.65;12.05;;;;;;;-0.66;67.30;101469.19;4925645;29;20035;-90
2024/01/31 00:05:00;;;;;;;22.85;11.73;;;;;;;-0.51;67.50;101489.91;4955239;29;20086;-90
2024/01/31 00:07:26;;;;;;;19.45;11.13;;;;;;;-0.70;67.74;101486.31;4939369;29;20023;-90
2024/01/31 00:09:52;;;;;;;23.48;12.32;;;;;;;-0.71;67.58;101491.75;4924955;29;20034;-88
2024/01/31 00:12:18;;;;;;;21.50;11.98;;;;;;;-0.76;67.88;101486.06;4941080;29;20019;-90
2024/01/31 00:14:44;;;;;;;20.13;12.30;;;;;;;-0.84;67.94;101487.59;4922516;29;20031;-91
2024/01/31 00:17:09;;;;;;;29.17;13.60;;;;;;;-0.90;68.08;101495.25;4924076;29;20035;-90
2024/01/31 00:19:35;;;;;;;20.33;12.73;;;;;;;-0.90;68.37;101503.19;4923368;29;20482;-91
2024/01/31 00:22:00;;;;;;;23.70;12.35;;;;;;;-1.04;67.94;101486.78;4923920;29;20059;-89
2024/01/31 00:24:29;;;;;;;21.73;12.55;;;;;;;-1.13;68.41;101479.69;4922578;29;20505;-90
2024/01/31 00:26:57;;;;;;;25.85;13.30;;;;;;;-1.23;68.35;101482.31;4957138;28;20031;-90
2024/01/31 00:29:23;;;;;;;28.40;12.70;;;;;;;-1.26;68.59;101485.25;4924576;29;20028;-87
2024/01/31 00:31:49;;;;;;;22.63;12.88;;;;;;;-1.18;68.52;101497.78;4923402;29;20402;-88
2024/01/31 00:34:16;;;;;;;21.35;12.70;;;;;;;-1.26;68.86;101495.81;4923041;29;20067;-90
2024/01/31 00:36:42;;;;;;;23.05;12.20;;;;;;;-1.31;69.01;101483.97;4956073;28;20046;-90
2024/01/31 00:39:08;;;;;;;24.92;13.07;;;;;;;-1.15;69.23;101504.59;4935940;29;20024;-90
2024/01/31 00:41:34;;;;;;;28.10;13.52;;;;;;;-1.30;69.24;101478.56;4928473;29;20023;-89
2024/01/31 00:43:59;;;;;;;24.25;12.80;;;;;;;-1.20;69.45;101488.28;4915410;29;20088;-90
2024/01/31 00:46:25;;;;;;;26.55;13.02;;;;;;;-1.07;68.95;101500.28;4915232;29;20055;-90
2024/01/31 00:48:53;;;;;;;22.10;12.10;;;;;;;-1.24;68.75;101480.66;4907958;29;20028;-90
2024/01/31 00:51:19;;;;;;;22.08;11.75;;;;;;;-1.19;68.97;101498.75;4908663;29;20023;-90
2024/01/31 00:53:45;;;;;;;21.50;11.88;;;;;;;-1.21;69.30;101492.75;4922963;29;20020;-90
2024/01/31 00:56:10;;;;;;;24.27;11.40;;;;;;;-1.31;68.92;101479.53;4913630;29;20512;-90
2024/01/31 00:58:36;;;;;;;21.13;11.30;;;;;;;-1.42;69.49;101475.22;4910901;29;20063;-92
2024/01/31 01:01:02;;;;;;;22.40;12.20;;;;;;;-1.23;69.34;101497.34;4908153;29;20031;-90
2024/01/31 01:03:27;;;;;;;25.50;11.32;;;;;;;-1.42;69.27;101469.94;4903908;29;20106;-90
2024/01/31 01:05:55;;;;;;;21.42;12.00;;;;;;;-1.35;69.28;101472.03;4888524;29;20079;-90
2024/01/31 01:08:20;;;;;;;20.50;11.18;;;;;;;-1.16;68.55;101471.19;4888786;29;20028;-90
2024/01/31 01:10:46;;;;;;;19.33;10.45;;;;;;;-1.02;68.23;101490.13;4888213;29;20024;-90
2024/01/31 01:13:12;;;;;;;20.98;10.88;;;;;;;-1.08;68.42;101485.41;4904809;29;20044;-91
2024/01/31 01:15:37;;;;;;;24.38;11.60;;;;;;;-1.17;68.24;101465.06;4888974;29;20067;-90
2024/01/31 01:18:05;;;;;;;22.50;11.55;;;;;;;-1.14;68.24;101466.59;4888946;29;20111;-91
2024/01/31 01:20:30;;;;;;;17.33;10.15;;;;;;;-1.05;68.03;101485.09;4905936;29;20513;-87
2024/01/31 01:22:57;;;;;;;25.98;14.70;;;;;;;-1.09;68.25;101473.13;4892488;29;20015;-91
2024/01/31 01:25:23;;;;;;;29.77;15.93;;;;;;;-0.96;68.33;101480.78;4905776;29;20485;-91
2024/01/31 01:27:51;;;;;;;23.77;13.45;;;;;;;-0.95;68.38;101476.34;4923084;29;20034;-90
2024/01/31 01:30:19;;;;;;;23.13;12.45;;;;;;;-1.03;67.88;101456.72;4909155;29;20027;-90
2024/01/31 01:32:45;;;;;;;21.67;10.88;;;;;;;-0.89;67.73;101489.00;4923749;29;20046;-90
2024/01/31 01:35:11;;;;;;;20.92;11.18;;;;;;;-1.02;67.38;101463.69;4907409;29;20027;-89
2024/01/31 01:37:37;;;;;;;16.63;10.02;;;;;;;-0.90;67.24;101480.22;4927735;29;20019;-89
2024/01/31 01:40:03;;;;;;;21.33;11.43;;;;;;;-1.16;67.30;101466.75;4932394;29;20086;-88
2024/01/31 01:42:29;;;;;;;16.90;9.90;;;;;;;-1.26;67.32;101472.03;4914911;29;20528;-90
2024/01/31 01:44:55;;;;;;;21.30;11.75;;;;;;;-1.55;67.79;101463.28;4933651;28;20062;-91
2024/01/31 01:47:23;;;;;;;17.23;10.55;;;;;;;-1.65;68.09;101460.59;4944825;28;20022;-91
2024/01/31 01:49:48;;;;;;;16.73;10.95;;;;;;;-1.72;68.31;101464.75;4960900;28;20026;-91
2024/01/31 01:52:14;;;;;;;19.73;11.02;;;;;;;-1.93;68.95;101446.38;4930406;28;20038;-91
2024/01/31 01:54:40;;;;;;;20.38;11.98;;;;;;;-1.98;69.62;101453.88;4929730;28;20064;-91
2024/01/31 01:57:07;;;;;;;18.88;10.13;;;;;;;-1.95;70.12;101472.91;4945039;28;20019;-90
2024/01/31 01:59:33;;;;;;;17.88;9.73;;;;;;;-1.85;69.21;101481.72;4930136;28;20050;-89
2024/01/31 02:01:59;;;;;;;15.60;9.60;;;;;;;-1.99;69.77;101468.03;4945389;28;20034;-91
2024/01/31 02:04:25;;;;;;;17.55;10.02;;;;;;;-2.02;69.72;101479.69;4933846;29;20031;-91
2024/01/31 02:06:51;;;;;;;17.48;10.30;;;;;;;-2.04;69.90;101466.63;4897456;29;20107;-89
2024/01/31 02:09:19;;;;;;;17.38;9.93;;;;;;;-2.04;70.25;101465.78;4902840;29;20036;-89
2024/01/31 02:11:46;;;;;;;17.27;9.00;;;;;;;-2.09;70.02;101458.28;4936464;29;20035;-90
2024/01/31 02:14:12;;;;;;;16.95;9.32;;;;;;;-2.07;70.63;101474.81;4939990;29;20051;-90
2024/01/31 02:16:38;;;;;;;18.27;9.90;;;;;;;-2.15;70.60;101453.53;4925665;29;20027;-88
2024/01/31 02:19:04;;;;;;;21.15;10.30;;;;;;;-2.15;71.03;101448.25;4925174;29;20102;-87
2024/01/31 02:21:48;;;;;;;18.23;9.93;;;;;;;-2.18;70.68;101432.69;4910465;29;20047;-90
2024/01/31 02:24:15;;;;;;;20.15;10.13;;;;;;;-2.16;70.80;101436.03;4927472;29;20028;-90
2024/01/31 02:26:40;;;;;;;21.95;10.60;;;;;;;-2.09;70.50;101439.81;4921386;29;20395;-91
2024/01/31 02:29:08;;;;;;;17.02;9.93;;;;;;;-2.13;70.95;101446.31;4902075;29;20031;-90
2024/01/31 02:31:34;;;;;;;21.92;10.05;;;;;;;-2.16;70.54;101443.13;4922269;29;20028;-91
2024/01/31 02:34:01;;;;;;;21.35;10.30;;;;;;;-2.24;71.03;101435.88;4921768;29;20054;-90
2024/01/31 02:36:26;;;;;;;15.82;9.45;;;;;;;-2.24;71.18;101439.34;4906428;29;20027;-90
2024/01/31 02:38:52;;;;;;;18.58;10.60;;;;;;;-2.26;71.11;101438.66;4889389;29;20031;-90
2024/01/31 02:41:18;;;;;;;19.48;10.63;;;;;;;-2.27;70.64;101444.88;4905958;29;20055;-90
2024/01/31 02:43:43;;;;;;;18.88;9.60;;;;;;;-2.17;70.92;101442.28;4905254;29;20070;-90
2024/01/31 02:46:10;;;;;;;18.17;10.27;;;;;;;-2.08;69.98;101425.63;4908656;29;20036;-90
2024/01/31 02:48:36;;;;;;;16.55;10.50;;;;;;;-1.89;70.03;101440.69;4917106;29;20027;-91
2024/01/31 02:51:02;;;;;;;17.77;9.77;;;;;;;-1.99;69.61;101421.38;4928617;29;20051;-90
2024/01/31 02:53:29;;;;;;;17.40;9.20;;;;;;;-1.98;69.56;101425.66;4907198;29;20024;-90
2024/01/31 02:55:56;;;;;;;23.70;10.55;;;;;;;-1.92;69.10;101425.13;4922110;29;20031;-90
2024/01/31 02:58:23;;;;;;;17.00;10.30;;;;;;;-1.89;69.46;101416.94;4889999;29;20032;-89
2024/01/31 03:00:51;;;;;;;19.35;10.05;;;;;;;-1.77;69.31;101422.09;4905506;29;20027;-91
2024/01/31 03:03:17;;;;;;;16.13;9.48;;;;;;;-1.79;69.16;101419.56;4907902;29;20063;-87
2024/01/31 03:05:42;;;;;;;17.08;10.02;;;;;;;-1.84;68.91;101414.72;4907914;29;20027;-88
2024/01/31 03:08:08;;;;;;;21.20;10.25;;;;;;;-1.80;68.50;101417.91;4919863;29;20057;-90
2024/01/31 03:10:34;;;;;;;14.80;9.50;;;;;;;-1.85;68.69;101417.47;4921258;29;20094;-89
2024/01/31 03:13:00;;;;;;;17.02;9.07;;;;;;;-1.99;69.23;101426.66;4911181;29;20027;-90
2024/01/31 03:15:26;;;;;;;17.38;9.30;;;;;;;-1.95;69.41;101437.75;4924123;29;20050;-90
2024/01/31 03:17:52;;;;;;;36.22;22.70;;;;;;;-2.22;69.31;101402.28;4923288;29;20027;-90
2024/01/31 03:20:18;;;;;;;19.05;11.48;;;;;;;-2.21;69.42;101411.03;4924149;29;20027;-88
2024/01/31 03:22:44;;;;;;;20.05;10.05;;;;;;;-2.36;70.16;101403.47;4909202;29;20034;-89
2024/01/31 03:25:10;;;;;;;18.52;9.73;;;;;;;-2.24;70.40;101427.97;4908629;29;20061;-90
2024/01/31 03:27:36;;;;;;;15.52;9.77;;;;;;;-2.52;70.45;101414.53;4923437;29;20036;-90
2024/01/31 03:30:02;;;;;;;20.02;11.00;;;;;;;-2.43;70.60;101426.06;4908761;29;20074;-90
2024/01/31 03:32:29;;;;;;;17.63;10.32;;;;;;;-2.51;70.78;101410.94;4920168;29;20039;-89
2024/01/31 03:34:59;;;;;;;18.50;10.27;;;;;;;-2.57;70.55;101407.97;4888787;29;20028;-90
2024/01/31 03:37:24;;;;;;;14.23;8.38;;;;;;;-2.73;70.41;101396.13;4910178;29;20156;-89
2024/01/31 03:39:50;;;;;;;15.63;8.90;;;;;;;-2.67;70.57;101389.50;4927819;28;20026;-90
2024/01/31 03:42:18;;;;;;;20.05;10.52;;;;;;;-2.70;71.06;101402.91;4923534;28;20092;-89
2024/01/31 03:44:44;;;;;;;21.00;10.18;;;;;;;-2.68;71.05;101414.16;4925185;29;20028;-89
2024/01/31 03:47:10;;;;;;;20.65;10.77;;;;;;;-2.78;71.33;101408.88;4924002;29;20042;-87
2024/01/31 03:49:37;;;;;;;22.25;11.60;;;;;;;-2.67;71.05;101426.41;4924229;29;20110;-90
2024/01/31 03:52:03;;;;;;;24.67;12.98;;;;;;;-2.71;71.31;101412.63;4930553;28;20023;-90
2024/01/31 03:54:28;;;;;;;28.55;13.57;;;;;;;-2.75;71.35;101413.03;4910344;28;20096;-91
2024/01/31 03:56:55;;;;;;;23.20;10.98;;;;;;;-2.82;71.79;101402.19;4912283;28;20445;-90
2024/01/31 03:59:21;;;;;;;19.67;11.10;;;;;;;-2.89;71.70;101404.47;4923668;29;20059;-90
2024/01/31 04:01:50;;;;;;;20.50;11.00;;;;;;;-2.73;72.16;101426.91;4923335;29;20023;-90
2024/01/31 04:04:16;;;;;;;26.85;11.85;;;;;;;-2.92;72.46;101404.75;4905113;29;20032;-90
2024/01/31 04:06:43;;;;;;;20.33;10.43;;;;;;;-2.84;71.57;101409.38;4916932;29;20041;-91
2024/01/31 04:09:09;;;;;;;18.83;11.23;;;;;;;-2.85;71.92;101391.88;4925032;28;20499;-88
2024/01/31 04:11:35;;;;;;;20.02;10.07;;;;;;;-2.83;71.39;101400.50;4924224;29;20066;-90
2024/01/31 04:14:02;;;;;;;21.98;12.23;;;;;;;-2.70;71.58;101401.13;4942570;29;20606;-89
2024/01/31 04:16:28;;;;;;;23.52;12.85;;;;;;;-2.69;70.76;101396.69;4908304;29;20015;-92
2024/01/31 04:18:54;;;;;;;27.15;13.95;;;;;;;-2.58;71.14;101406.31;4911286;29;20044;-88
2024/01/31 04:21:23;;;;;;;21.30;12.63;;;;;;;-2.61;71.01;101399.50;4912582;29;20134;-91
2024/01/31 04:23:49;;;;;;;22.40;11.77;;;;;;;-2.54;70.32;101389.25;4911942;29;20497;-90
2024/01/31 04:26:15;;;;;;;26.20;12.45;;;;;;;-2.49;70.81;101414.28;4927924;29;20027;-90
2024/01/31 04:28:41;;;;;;;22.33;11.90;;;;;;;-2.59;70.56;101408.13;4926431;29;20042;-89
2024/01/31 04:31:16;;;;;;;22.23;10.90;;;;;;;-2.80;70.61;101389.72;4931322;29;20031;-91
2024/01/31 04:33:42;;;;;;;21.40;11.45;;;;;;;-2.66;70.25;101399.06;4913447;29;20086;-90
2024/01/31 04:36:32;;;;;;;20.25;11.98;;;;;;;-2.59;70.25;101421.31;4916925;29;20141;-90
2024/01/31 04:39:01;;;;;;;21.00;10.85;;;;;;;-2.65;70.21;101424.47;4943539;28;20026;-89
2024/01/31 04:41:27;;;;;;;23.48;11.48;;;;;;;-2.76;69.85;101406.94;4911331;29;20027;-89
2024/01/31 04:43:53;;;;;;;19.92;10.38;;;;;;;-3.00;70.42;101386.13;4915874;29;20024;-91
2024/01/31 04:46:22;;;;;;;21.90;10.98;;;;;;;-3.06;70.47;101402.47;4923617;28;20023;-90
2024/01/31 04:48:48;;;;;;;19.42;11.40;;;;;;;-2.96;70.22;101421.81;4913031;28;20061;-89
2024/01/31 04:51:14;;;;;;;21.83;11.98;;;;;;;-3.18;70.32;101385.88;4921399;28;20023;-91
2024/01/31 04:53:40;;;;;;;19.92;10.75;;;;;;;-3.08;69.64;101392.03;4911211;29;20081;-90
2024/01/31 04:56:08;;;;;;;18.80;11.43;;;;;;;-3.11;70.13;101405.47;4915743;29;20050;-92
2024/01/31 04:58:37;;;;;;;19.88;11.15;;;;;;;-2.99;70.03;101429.13;4911663;29;20038;-92
2024/01/31 05:01:05;;;;;;;20.75;12.25;;;;;;;-3.10;70.44;101416.84;4910810;29;20031;-93
2024/01/31 05:03:31;;;;;;;22.38;12.15;;;;;;;-3.29;70.06;101384.13;4911218;29;20028;-93
2024/01/31 05:05:56;;;;;;;23.33;11.98;;;;;;;-3.17;70.27;101410.44;4911487;29;20034;-93
2024/01/31 05:08:22;;;;;;;19.38;9.70;;;;;;;-3.30;69.74;101402.69;4915689;29;20476;-94
2024/01/31 05:10:47;;;;;;;19.80;10.90;;;;;;;-3.30;69.83;101398.28;4915644;29;20023;-93
2024/01/31 05:13:13;;;;;;;21.70;11.30;;;;;;;-3.34;69.68;101394.25;4910876;29;20039;-92
2024/01/31 05:15:39;;;;;;;27.08;11.27;;;;;;;-3.26;69.53;101425.19;4909089;29;20079;-87
2024/01/31 05:18:04;;;;;;;22.10;12.63;;;;;;;-3.26;70.08;101415.50;4906652;29;20015;-87
2024/01/31 05:20:30;;;;;;;21.85;11.90;;;;;;;-3.33;70.53;101413.50;4926116;29;20086;-90
2024/01/31 05:22:56;;;;;;;22.98;11.98;;;;;;;-3.32;70.26;101409.91;4922125;29;20057;-90
2024/01/31 05:25:22;;;;;;;23.73;11.90;;;;;;;-3.34;69.89;101403.91;4915168;29;20031;-94
2024/01/31 05:27:55;;;;;;;23.73;12.25;;;;;;;-3.32;70.20;101409.91;4926102;29;20027;-89
2024/01/31 05:30:28;;;;;;;22.00;11.80;;;;;;;-3.29;69.99;101412.28;4922001;28;20066;-90
2024/01/31 05:32:57;;;;;;;21.08;10.90;;;;;;;-3.32;70.46;101418.66;4918529;28;20093;-89
2024/01/31 05:35:22;;;;;;;30.38;15.43;;;;;;;-3.42;70.85;101415.09;4910992;29;20118;-90
2024/01/31 05:37:48;;;;;;;23.75;13.00;;;;;;;-3.39;70.62;101429.81;4933229;28;20027;-90
2024/01/31 05:40:16;;;;;;;23.92;11.18;;;;;;;-3.47;70.37;101404.94;4915679;28;20109;-90
2024/01/31 05:42:45;;;;;;;32.60;12.02;;;;;;;-3.33;70.06;101438.03;4911148;28;20038;-91
2024/01/31 05:45:13;;;;;;;20.23;11.38;;;;;;;-3.47;69.99;101409.38;4943356;28;20499;-90
2024/01/31 05:47:41;;;;;;;33.47;17.58;;;;;;;-3.35;70.07;101426.78;4930082;28;20030;-90
2024/01/31 05:50:16;;;;;;;22.33;12.73;;;;;;;-3.01;69.61;101452.97;4930798;28;20023;-89
2024/01/31 05:53:02;;;;;;;31.98;14.07;;;;;;;-3.06;69.55;101420.91;4932360;28;20042;-90
2024/01/31 05:55:48;;;;;;;22.30;12.15;;;;;;;-3.11;69.53;101402.03;4910461;29;20039;-91
2024/01/31 05:58:14;;;;;;;30.42;12.57;;;;;;;-2.94;68.92;101422.50;4931531;29;20517;-88
2024/01/31 06:00:40;;;;;;;23.25;12.98;;;;;;;-2.78;68.89;101416.78;4926377;28;20080;-90
2024/01/31 06:03:15;;;;;;;23.13;12.50;;;;;;;-2.71;67.83;101403.91;4926262;28;20059;-93
2024/01/31 06:05:40;;;;;;;30.80;12.00;;;;;;;-2.60;68.08;101424.06;4950148;28;20082;-88
2024/01/31 06:08:07;;;;;;;19.45;10.93;;;;;;;-2.65;68.17;101414.75;4919831;28;20114;-89
2024/01/31 06:10:32;;;;;;;22.90;12.02;;;;;;;-2.77;68.80;101433.41;4933700;28;20041;-87
2024/01/31 06:12:58;;;;;;;25.77;12.82;;;;;;;-2.77;68.80;101425.50;4941215;28;20031;-88
2024/01/31 06:15:26;;;;;;;19.83;13.25;;;;;;;-2.78;68.77;101450.19;4920806;29;20035;-87
2024/01/31 06:18:14;;;;;;;21.48;12.90;;;;;;;-2.79;68.77;101430.91;4891136;29;20032;-88
2024/01/31 06:21:02;;;;;;;;;;;;;;;;;;;;;
2024/01/31 06:27:18;;;;;;;;;;;;;;;;;;;;;
2024/01/31 06:30:53;;;;;;;22.58;10.05;;;;;;;-2.50;68.50;101441.59;4911872;28;20041;-86
2024/01/31 06:33:23;;;;;;;13.93;8.60;;;;;;;-2.44;68.02;101414.69;4924958;28;20505;-88
2024/01/31 06:36:00;;;;;;;14.52;8.35;;;;;;;-2.33;67.41;101426.13;4913128;28;20446;-87
2024/01/31 06:38:28;;;;;;;16.05;9.07;;;;;;;-2.24;66.78;101431.44;4906240;29;20044;-88
2024/01/31 06:41:05;;;;;;;17.30;9.38;;;;;;;-2.36;65.93;101395.56;4904829;29;20043;-88
2024/01/31 06:43:30;;;;;;;19.45;9.32;;;;;;;-2.14;65.82;101414.78;4891317;29;20035;-88
2024/01/31 06:46:01;;;;;;;15.70;8.70;;;;;;;-1.94;65.11;101421.78;4937286;29;20035;-87
2024/01/31 06:48:28;;;;;;;14.55;8.63;;;;;;;-1.87;64.61;101412.38;4890317;29;20490;-88
2024/01/31 06:50:54;;;;;;;17.63;9.27;;;;;;;-1.85;64.27;101399.84;4929286;28;20038;-88
2024/01/31 06:53:29;;;;;;;18.77;10.57;;;;;;;-1.83;64.20;101384.72;4918022;28;20070;-90
2024/01/31 06:55:55;;;;;;;23.10;11.85;;;;;;;-1.53;63.91;101411.97;4918956;28;20034;-91
2024/01/31 06:58:21;;;;;;;17.90;9.38;;;;;;;-1.43;63.56;101410.16;4925998;28;20035;-89
2024/01/31 07:00:47;;;;;;;18.60;9.90;;;;;;;-1.18;62.88;101414.97;4916913;28;20121;-89
2024/01/31 07:03:16;;;;;;;17.40;9.20;;;;;;;-1.36;62.11;101393.75;4907857;28;20037;-89
2024/01/31 07:05:42;;;;;;;22.05;11.10;;;;;;;-1.26;62.50;101394.56;4934584;28;20038;-91
2024/01/31 07:08:11;;;;;;;21.10;11.68;;;;;;;-1.26;62.88;101386.63;4907594;29;20102;-88
2024/01/31 07:10:36;;;;;;;19.33;11.13;;;;;;;-1.32;62.47;101382.75;4907713;29;20051;-88
2024/01/31 07:13:07;;;;;;;19.75;10.10;;;;;;;-1.22;62.16;101409.16;4907247;29;20023;-94
2024/01/31 07:15:36;;;;;;;18.58;10.25;;;;;;;-1.17;62.14;101391.06;4908620;29;20031;-91
2024/01/31 07:18:02;;;;;;;37.22;19.25;;;;;;;-0.97;61.73;101405.09;4927960;28;20466;-93
2024/01/31 07:20:28;;;;;;;14.85;8.73;;;;;;;-1.11;60.88;101384.38;4917106;28;20027;-90
2024/01/31 07:22:53;;;;;;;17.80;9.45;;;;;;;-0.96;60.49;101390.06;4921767;28;20058;-91
2024/01/31 07:25:24;;;;;;;25.90;13.68;;;;;;;-1.02;62.08;101376.44;4933185;28;20057;-91
2024/01/31 07:27:50;;;;;;;22.42;11.85;;;;;;;-0.93;62.19;101377.38;4911336;29;20123;-91
2024/01/31 07:30:25;;;;;;;20.25;10.00;;;;;;;-0.73;61.72;101403.75;4937815;28;20058;-90
2024/01/31 07:32:51;;;;;;;15.27;9.57;;;;;;;-0.73;61.17;101399.28;4908991;29;20032;-89
2024/01/31 07:35:24;;;;;;;13.35;7.18;;;;;;;-0.59;59.33;101376.00;4927180;28;20053;-91
2024/01/31 07:37:50;;;;;;;23.10;7.95;;;;;;;-0.30;58.89;101387.28;4930460;28;20015;-90
2024/01/31 07:40:18;;;;;;;23.02;8.10;;;;;;;-0.44;59.16;101359.47;4928351;28;20472;-91
2024/01/31 07:42:44;;;;;;;26.45;13.02;;;;;;;-0.39;59.80;101351.13;4931234;28;20439;-90
2024/01/31 07:45:10;;;;;;;18.75;9.48;;;;;;;-0.03;59.98;101390.91;4909387;28;20038;-89
2024/01/31 07:47:37;;;;;;;18.52;10.00;;;;;;;0.05;58.17;101371.63;4912352;29;20020;-90
2024/01/31 07:50:07;;;;;;;14.15;8.52;;;;;;;0.22;57.16;101375.25;4915439;28;20062;-88
2024/01/31 07:52:48;;;;;;;11.63;7.90;;;;;;;0.17;56.97;101355.34;4911643;28;20030;-88
2024/01/31 07:55:22;;;;;;;17.52;8.35;;;;;;;0.24;57.12;101350.28;4926061;28;20400;-91
2024/01/31 07:58:05;;;;;;;18.02;8.65;;;;;;;0.51;57.78;101372.38;4915806;28;20032;-90
2024/01/31 08:00:30;;;;;;;;;;;;;;;0.64;56.80;101377.25;4918168;29;20087;-91
2024/01/31 08:06:19;;;;;;;15.48;8.63;;;;;;;0.49;57.87;101346.00;4953095;29;20016;-95
2024/01/31 08:09:09;;;;;;;14.07;8.25;;;;;;;0.53;57.18;101338.59;4939866;29;20011;-94
2024/01/31 08:14:19;;;;;;;17.98;9.02;;;;;;;0.89;56.99;101354.41;5306229;23;20050;-93
2024/01/31 08:16:56;;;;;;;14.50;8.80;;;;;;;0.80;56.44;101322.53;4935674;28;20049;-90
2024/01/31 08:19:28;;;;;;;16.05;8.70;;;;;;;1.10;55.44;101359.34;4929482;28;20037;-93
2024/01/31 08:21:58;;;;;;;27.48;10.15;;;;;;;1.05;56.93;101361.66;4936149;28;20043;-96
2024/01/31 08:24:24;;;;;;;21.70;10.02;;;;;;;0.96;56.73;101328.94;4933505;28;20131;-91
2024/01/31 08:26:50;;;;;;;22.63;12.38;;;;;;;0.85;56.49;101321.25;4924419;28;20071;-91
2024/01/31 08:29:16;;;;;;;22.00;9.93;;;;;;;1.10;56.03;101343.41;4925466;28;20050;-90
2024/01/31 08:31:48;;;;;;;24.70;10.60;;;;;;;1.09;56.54;101328.50;4918689;29;20074;-94
2024/01/31 08:34:31;;;;;;;19.95;9.98;;;;;;;1.29;55.51;101318.50;4922256;29;20027;-96
2024/01/31 08:37:15;;;;;;;21.08;11.43;;;;;;;1.52;56.37;101327.53;4921718;29;20107;-93
2024/01/31 08:39:41;;;;;;;33.20;15.18;;;;;;;1.71;54.91;101347.69;4914789;29;20051;-93
2024/01/31 08:42:17;;;;;;;20.75;10.88;;;;;;;1.55;55.06;101319.25;4916114;29;20031;-92
2024/01/31 08:44:49;;;;;;;16.60;8.57;;;;;;;1.56;55.17;101323.56;4934795;29;20035;-92
2024/01/31 08:48:12;;;;;;;;;;;;;;;;;;;;;
2024/01/31 08:51:02;;;;;;;14.32;7.85;;;;;;;2.09;53.93;101328.66;5013501;23;20119;-94
2024/01/31 08:54:30;;;;;;;;;;;;;;;;;;;;;
2024/01/31 08:57:28;;;;;;;21.52;7.80;;;;;;;2.21;53.40;101306.91;4796122;29;20105;-95
2024/01/31 09:00:44;;;;;;;12.43;7.10;;;;;;;2.26;53.77;101298.44;4936237;29;20106;-95
2024/01/31 09:07:01;;;;;;;21.13;9.93;;;;;;;2.58;52.82;101288.78;4926587;29;20032;-91
2024/01/31 09:09:40;;;;;;;;;;;;;;;;;;;;;
2024/01/31 09:12:43;;;;;;;13.93;8.00;;;;;;;2.80;51.87;101287.22;4922497;29;20035;-94
2024/01/31 09:15:09;;;;;;;11.48;6.82;;;;;;;2.97;51.13;101283.53;4914770;29;20039;-93
2024/01/31 09:23:57;;;;;;;11.82;6.82;;;;;;;3.03;50.52;101272.22;4855963;29;20037;-95
2024/01/31 09:26:28;;;;;;;23.75;8.77;;;;;;;3.17;50.99;101261.84;4918373;29;20059;-94
2024/01/31 09:28:56;;;;;;;13.63;7.38;;;;;;;3.47;50.29;101284.19;4903478;29;20028;-93
2024/01/31 09:31:26;;;;;;;14.70;7.85;;;;;;;3.49;50.06;101266.19;4931872;29;20550;-94
2024/01/31 09:33:56;;;;;;;12.55;7.88;;;;;;;3.59;49.85;101255.28;4899736;29;20027;-96
2024/01/31 09:36:34;;;;;;;;;;;;;;;;;;;;;
2024/01/31 09:39:05;;;;;;;17.63;9.10;;;;;;;3.77;49.86;101245.19;4930791;29;20126;-94
2024/01/31 09:42:08;;;;;;;14.55;7.00;;;;;;;3.82;49.35;101223.34;4931952;29;20042;-93
2024/01/31 09:44:37;;;;;;;19.35;8.88;;;;;;;3.62;49.07;101242.47;4911862;29;20047;-95
2024/01/31 09:48:05;;;;;;;;;;;;;;;;;;;;;
2024/01/31 09:54:02;;;;;;;16.02;6.85;;;;;;;4.31;47.84;101216.75;4910113;29;20047;-96
2024/01/31 09:59:37;;;;;;;11.15;6.85;;;;;;;3.94;47.98;101202.44;5112629;23;20067;-96
2024/01/31 10:05:06;;;;;;;14.50;7.28;;;;;;;4.39;48.18;101208.69;4972202;29;20030;-95
2024/01/31 10:07:37;;;;;;;11.80;7.60;;;;;;;4.42;47.89;101186.97;4936352;29;20055;-96
2024/01/31 10:10:06;;;;;;;14.35;8.60;;;;;;;4.52;47.57;101190.19;4951686;29;20127;-94
2024/01/31 10:16:12;;;;;;;12.00;7.32;;;;;;;4.08;48.46;101177.66;4965894;29;20046;-94
2024/01/31 10:18:38;;;;;;;28.30;11.40;;;;;;;4.04;48.54;101176.34;4963668;29;20071;-94
2024/01/31 10:21:04;;;;;;;21.55;10.77;;;;;;;4.44;47.91;101193.78;4951709;29;20102;-95
2024/01/31 10:23:31;;;;;;;16.05;8.77;;;;;;;4.62;46.73;101188.09;4930137;29;20020;-95
2024/01/31 10:26:11;;;;;;;16.30;9.82;;;;;;;4.56;45.81;101161.31;4968137;29;20051;-96
2024/01/31 10:28:51;;;;;;;16.30;9.25;;;;;;;4.65;45.96;101171.72;4944163;29;20122;-94
2024/01/31 10:31:20;;;;;;;16.08;8.55;;;;;;;4.84;46.56;101185.50;4931431;29;20035;-93
2024/01/31 10:34:29;;;;;;;22.95;8.48;;;;;;;4.73;46.64;101160.13;4933501;29;20091;-95
2024/01/31 10:37:26;;;;;;;15.80;8.50;;;;;;;4.86;46.73;101178.97;4910279;29;20044;-95
2024/01/31 10:39:53;;;;;;;18.38;8.82;;;;;;;4.71;46.49;101145.28;4897730;29;20040;-95
2024/01/31 10:46:11;;;;;;;13.52;8.40;;;;;;;4.94;46.29;101135.34;4912067;29;20055;-94
2024/01/31 10:48:54;;;;;;;;;;;;;;;;;;;;;
2024/01/31 10:58:24;;;;;;;17.23;8.52;;;;;;;5.10;46.53;101117.41;4870513;29;20143;-94
2024/01/31 11:01:26;;;;;;;;;;;;;;;;;;;;;
2024/01/31 11:04:05;;;;;;;;;;;;;;;;;;;;;
2024/01/31 11:10:18;;;;;;;21.05;9.50;;;;;;;5.63;43.78;101132.13;4859875;29;20041;-95
2024/01/31 11:13:04;;;;;;;15.68;9.65;;;;;;;5.67;43.77;101127.22;4876809;29;20047;-95
2024/01/31 11:15:32;;;;;;;17.33;10.43;;;;;;;5.60;43.98;101104.94;4909624;29;20032;-95
2024/01/31 11:18:42;;;;;;;21.30;10.50;;;;;;;5.85;43.89;101129.41;4880474;29;20044;-94
2024/01/31 11:21:41;;;;;;;17.70;9.43;;;;;;;5.85;42.28;101098.19;4915583;29;20023;-94
2024/01/31 11:24:10;;;;;;;17.83;9.50;;;;;;;5.86;42.42;101083.78;4906441;29;20059;-95
2024/01/31 11:26:39;;;;;;;20.02;10.02;;;;;;;5.90;41.63;101081.53;4908746;29;20029;-93
2024/01/31 11:29:15;;;;;;;18.77;10.27;;;;;;;5.86;41.55;101075.75;4879751;29;20089;-94
2024/01/31 11:31:43;;;;;;;17.25;9.98;;;;;;;5.97;42.08;101087.78;4896305;29;20037;-93
2024/01/31 11:34:09;;;;;;;14.48;9.35;;;;;;;5.77;42.31;101065.41;4892069;29;20035;-94
2024/01/31 11:37:42;;;;;;;13.60;8.35;;;;;;;6.20;41.24;101103.56;4893476;29;20028;-91
2024/01/31 11:40:43;;;;;;;13.25;8.20;;;;;;;6.15;41.28;101081.94;4833439;29;20049;-95
2024/01/31 11:43:17;;;;;;;13.73;9.10;;;;;;;6.28;41.06;101086.53;4847523;29;20147;-96
2024/01/31 11:45:43;;;;;;;15.63;9.30;;;;;;;6.17;41.14;101055.00;4835295;29;20034;-94
2024/01/31 11:48:11;;;;;;;14.60;8.93;;;;;;;6.02;40.88;101063.97;4845384;29;20040;-95
2024/01/31 11:50:44;;;;;;;20.38;9.48;;;;;;;6.16;41.19;101080.91;4873036;29;20121;-94
2024/01/31 11:53:10;;;;;;;14.18;8.55;;;;;;;6.13;41.00;101051.88;4867778;29;20102;-93
2024/01/31 11:59:08;;;;;;;13.73;7.95;;;;;;;6.23;40.57;101043.50;4893213;29;20063;-96
2024/01/31 12:01:38;;;;;;;12.35;7.68;;;;;;;6.46;40.28;101060.06;4923690;29;20135;-94
2024/01/31 12:10:52;;;;;;;12.17;7.37;;;;;;;6.47;39.45;101042.16;4904732;29;20031;-94
2024/01/31 12:13:27;;;;;;;12.88;8.07;;;;;;;6.46;39.96;101037.84;4866718;29;20063;-92
2024/01/31 12:16:05;;;;;;;;;;;;;;;;;;;;;
2024/01/31 12:18:42;;;;;;;16.10;7.95;;;;;;;6.79;40.32;101037.94;4906726;29;20111;-92
2024/01/31 12:21:18;;;;;;;15.07;8.45;;;;;;;6.75;39.92;101025.19;4868017;29;20047;-93
2024/01/31 12:23:46;;;;;;;16.42;9.30;;;;;;;6.90;39.56;101031.16;4857745;29;20040;-94
2024/01/31 12:26:19;;;;;;;15.50;8.40;;;;;;;6.89;39.52;101032.22;4867241;29;20034;-94
2024/01/31 12:29:20;;;;;;;13.18;7.35;;;;;;;7.04;39.30;101037.38;4896546;29;20048;-95
2024/01/31 12:31:49;;;;;;;14.10;7.85;;;;;;;7.14;39.27;101040.50;4890829;29;20044;-93
2024/01/31 12:34:22;;;;;;;14.80;7.95;;;;;;;7.03;38.97;101014.28;4876491;29;20032;-96
2024/01/31 12:38:04;;;;;;;;;;;;;;;;;;;;;
2024/01/31 12:40:26;;;;;;;15.57;8.02;;;;;;;7.26;39.19;101019.25;4896842;29;20067;-93
2024/01/31 12:43:02;;;;;;;21.67;11.00;;;;;;;7.29;39.08;101011.63;4892094;29;20039;-92
2024/01/31 12:45:29;;;;;;;14.52;8.90;;;;;;;7.41;39.69;101022.56;4929132;29;20144;-95
2024/01/31 12:47:59;;;;;;;14.95;8.82;;;;;;;7.41;40.06;101019.06;4895842;29;20032;-94